Time;durP1;ratioP1;P1;durP2;ratioP2;P2;SDS_P1;SDS_P2;PMS_P1;PMS_P2;Temp;Humidity;BMP_temperature;BMP_pressure;BME280_temperature;BME280_humidity;BME280_pressure;Samples;Min_cycle;Max_cycle;Signal;HPM_P1;HPM_P2
2024/03/26 05:32:06;;;;;;;0.10;0.10;;;10.20;74.70;;;;;;5229872;23;20048;-83
2024/03/26 05:34:32;;;;;;;0.10;0.10;;;10.20;74.40;;;;;;5074459;28;20476;-83
2024/03/26 05:36:58;;;;;;;0.10;0.10;;;10.20;74.50;;;;;;5075497;28;20104;-80
2024/03/26 05:39:24;;;;;;;0.10;0.10;;;10.20;74.70;;;;;;5058140;28;20036;-80
2024/03/26 05:41:50;;;;;;;0.10;0.10;;;10.30;74.50;;;;;;5075230;28;20074;-80
2024/03/26 05:44:17;;;;;;;0.10;0.10;;;10.20;74.70;;;;;;5078550;28;20514;-80
2024/03/26 05:46:42;;;;;;;0.10;0.10;;;10.20;74.70;;;;;;5079905;28;20115;-80
2024/03/26 05:49:08;;;;;;;0.10;0.10;;;10.20;74.80;;;;;;5061749;28;20048;-80
2024/03/26 05:51:34;;;;;;;0.10;0.10;;;10.20;74.80;;;;;;5079576;28;20025;-80
2024/03/26 05:53:59;;;;;;;0.00;0.00;;;10.30;74.60;;;;;;5062087;28;20025;-80
2024/03/26 05:56:25;;;;;;;0.10;0.10;;;10.30;74.30;;;;;;5062087;28;20090;-83
2024/03/26 05:58:52;;;;;;;0.10;0.10;;;10.30;73.80;;;;;;5078322;28;20035;-84
2024/03/26 06:01:17;;;;;;;0.10;0.10;;;10.30;73.80;;;;;;5061328;28;20036;-82
2024/03/26 06:03:44;;;;;;;0.10;0.10;;;10.30;74.10;;;;;;5079001;28;20047;-84
2024/03/26 06:06:09;;;;;;;0.03;0.03;;;10.30;74.40;;;;;;5071545;28;20034;-85
2024/03/26 06:08:35;;;;;;;0.10;0.10;;;10.30;74.10;;;;;;5079220;28;20029;-82
2024/03/26 06:11:00;;;;;;;0.10;0.10;;;10.30;74.40;;;;;;5079059;28;20040;-82
2024/03/26 06:13:26;;;;;;;0.10;0.10;;;10.30;74.80;;;;;;5079364;28;20035;-82
2024/03/26 06:16:08;;;;;;;0.10;0.10;;;10.40;74.70;;;;;;5078982;28;20028;-82
2024/03/26 06:18:34;;;;;;;0.10;0.10;;;10.40;74.50;;;;;;5078934;28;20054;-85
2024/03/26 06:21:20;;;;;;;0.10;0.10;;;10.50;74.30;;;;;;5079138;28;20048;-83
2024/03/26 06:23:46;;;;;;;0.10;0.10;;;10.50;74.20;;;;;;5078685;28;20041;-82
2024/03/26 06:26:12;;;;;;;0.10;0.10;;;10.50;74.50;;;;;;5071697;28;20040;-75
2024/03/26 06:28:37;;;;;;;0.00;0.00;;;10.50;74.40;;;;;;5047656;28;20400;-77
2024/03/26 06:31:03;;;;;;;0.10;0.10;;;10.60;74.80;;;;;;5076670;28;20067;-78
2024/03/26 06:33:29;;;;;;;0.10;0.10;;;10.60;74.70;;;;;;5078025;28;20037;-84
2024/03/26 06:35:54;;;;;;;0.10;0.10;;;10.60;74.60;;;;;;5061470;28;20449;-83
2024/03/26 06:38:20;;;;;;;0.10;0.10;;;10.60;74.80;;;;;;5075531;28;20025;-85
2024/03/26 06:40:47;;;;;;;0.10;0.10;;;10.60;74.60;;;;;;5068619;28;20029;-85
2024/03/26 06:43:15;;;;;;;0.10;0.10;;;10.60;74.50;;;;;;5069438;28;20092;-89
2024/03/26 06:45:54;;;;;;;0.10;0.10;;;10.50;74.40;;;;;;5057235;28;20033;-88
2024/03/26 06:48:20;;;;;;;0.10;0.10;;;10.50;74.40;;;;;;5076138;28;20025;-86
2024/03/26 06:50:45;;;;;;;0.10;0.10;;;10.50;75.00;;;;;;5048961;28;20028;-87
2024/03/26 06:53:11;;;;;;;0.10;0.10;;;10.50;75.10;;;;;;5072716;28;20400;-85
2024/03/26 06:55:37;;;;;;;0.10;0.10;;;10.50;75.10;;;;;;5077475;28;20502;-85
2024/03/26 06:58:03;;;;;;;0.10;0.10;;;10.50;75.00;;;;;;5060828;28;20448;-86
2024/03/26 07:00:29;;;;;;;0.10;0.10;;;10.50;74.80;;;;;;5061075;28;20059;-85
2024/03/26 07:02:57;;;;;;;0.10;0.10;;;10.50;74.80;;;;;;5060503;28;20025;-85
2024/03/26 07:05:26;;;;;;;0.10;0.10;;;10.40;75.40;;;;;;5076603;28;20056;-85
2024/03/26 07:07:51;;;;;;;0.10;0.10;;;10.50;75.60;;;;;;5059672;28;20032;-86
2024/03/26 07:10:17;;;;;;;0.10;0.10;;;10.50;75.60;;;;;;5078149;28;20613;-85
2024/03/26 07:12:43;;;;;;;0.10;0.10;;;10.50;75.50;;;;;;5077723;28;20035;-85
2024/03/26 07:15:10;;;;;;;0.10;0.10;;;10.50;75.50;;;;;;5078359;28;20029;-87
2024/03/26 07:17:38;;;;;;;0.10;0.10;;;10.50;75.40;;;;;;5059813;28;20021;-86
2024/03/26 07:20:05;;;;;;;0.10;0.10;;;10.50;75.50;;;;;;5060449;28;20028;-86
2024/03/26 07:22:30;;;;;;;0.10;0.10;;;10.50;75.50;;;;;;5078582;28;20021;-85
2024/03/26 07:24:56;;;;;;;0.10;0.10;;;10.50;75.70;;;;;;5077584;28;20053;-85
2024/03/26 07:27:22;;;;;;;0.10;0.10;;;10.60;75.10;;;;;;5059864;28;20024;-85
2024/03/26 07:29:48;;;;;;;0.10;0.10;;;10.70;75.40;;;;;;5077329;28;20020;-85
2024/03/26 07:32:14;;;;;;;0.10;0.10;;;10.60;75.80;;;;;;5054442;28;20059;-85
2024/03/26 07:34:40;;;;;;;0.10;0.10;;;10.60;75.90;;;;;;5057954;28;20481;-85
2024/03/26 07:37:05;;;;;;;0.10;0.10;;;10.60;75.90;;;;;;5063355;28;20479;-86
2024/03/26 07:39:31;;;;;;;0.10;0.10;;;10.50;76.30;;;;;;5060880;28;20029;-85
2024/03/26 07:41:57;;;;;;;0.10;0.10;;;10.60;76.20;;;;;;5060177;28;20082;-87
2024/03/26 07:44:23;;;;;;;0.10;0.10;;;10.60;76.10;;;;;;5077401;28;20021;-85
2024/03/26 07:46:48;;;;;;;0.10;0.10;;;10.60;76.30;;;;;;5077774;28;20029;-86
2024/03/26 07:49:14;;;;;;;0.10;0.10;;;10.70;76.00;;;;;;5077870;28;20052;-86
2024/03/26 07:51:40;;;;;;;0.10;0.10;;;10.70;75.90;;;;;;5077381;28;20032;-85
2024/03/26 07:54:05;;;;;;;0.10;0.10;;;10.80;75.90;;;;;;5059393;28;20027;-85
2024/03/26 07:56:31;;;;;;;0.10;0.10;;;10.80;75.70;;;;;;5077890;28;20060;-86
2024/03/26 07:58:57;;;;;;;0.10;0.10;;;10.90;75.60;;;;;;5077555;28;20020;-85
2024/03/26 08:01:23;;;;;;;0.10;0.10;;;10.90;75.70;;;;;;5077436;28;20028;-85
2024/03/26 08:03:50;;;;;;;0.10;0.10;;;10.90;75.80;;;;;;5058960;28;20028;-85
2024/03/26 08:06:16;;;;;;;0.10;0.10;;;11.00;75.70;;;;;;5076707;28;20032;-85
2024/03/26 08:08:41;;;;;;;0.10;0.10;;;11.00;75.70;;;;;;5076442;28;20024;-85
2024/03/26 08:11:11;;;;;;;0.10;0.10;;;11.10;75.60;;;;;;5077251;28;20058;-85
2024/03/26 08:13:37;;;;;;;0.10;0.10;;;11.10;75.40;;;;;;5077312;28;20025;-85
2024/03/26 08:16:03;;;;;;;0.10;0.10;;;11.10;75.60;;;;;;5077207;28;20044;-85
2024/03/26 08:18:29;;;;;;;0.10;0.10;;;11.20;75.40;;;;;;5059380;28;20024;-85
2024/03/26 08:20:54;;;;;;;0.10;0.10;;;11.20;75.30;;;;;;5059377;28;20379;-84
2024/03/26 08:23:20;;;;;;;0.10;0.10;;;11.20;75.10;;;;;;5076888;28;20041;-85
2024/03/26 08:25:45;;;;;;;0.10;0.10;;;11.20;75.30;;;;;;5077108;28;20083;-85
2024/03/26 08:28:11;;;;;;;0.10;0.10;;;11.20;75.40;;;;;;5076957;28;20605;-84
2024/03/26 08:30:37;;;;;;;0.10;0.10;;;11.20;75.60;;;;;;5076300;28;20032;-84
2024/03/26 08:33:03;;;;;;;0.10;0.10;;;11.20;75.30;;;;;;5055069;28;20163;-85
2024/03/26 08:35:29;;;;;;;0.10;0.10;;;11.20;75.30;;;;;;5056737;28;20068;-85
2024/03/26 08:37:54;;;;;;;0.10;0.10;;;11.20;75.30;;;;;;5071510;28;20044;-85
2024/03/26 08:40:20;;;;;;;0.10;0.10;;;11.20;75.20;;;;;;5076939;28;20483;-85
2024/03/26 08:42:46;;;;;;;0.10;0.10;;;11.30;75.20;;;;;;5058055;28;20031;-85
2024/03/26 08:45:12;;;;;;;0.10;0.10;;;11.30;75.20;;;;;;5076531;28;20039;-85
2024/03/26 08:47:37;;;;;;;0.10;0.10;;;11.30;75.50;;;;;;5076979;28;20025;-84
2024/03/26 08:50:03;;;;;;;0.10;0.10;;;11.30;75.60;;;;;;5076183;28;20029;-86
2024/03/26 08:52:29;;;;;;;0.10;0.10;;;11.30;75.70;;;;;;5076830;28;20553;-85
2024/03/26 08:54:55;;;;;;;0.10;0.10;;;11.40;75.50;;;;;;5058132;28;20028;-85
2024/03/26 08:57:20;;;;;;;0.10;0.10;;;11.50;75.60;;;;;;5076555;28;20019;-85
2024/03/26 08:59:47;;;;;;;0.10;0.10;;;11.40;76.00;;;;;;5076324;28;20025;-84
2024/03/26 09:02:13;;;;;;;0.10;0.10;;;11.40;75.60;;;;;;5059976;28;20082;-85
2024/03/26 09:04:39;;;;;;;0.10;0.10;;;11.60;75.20;;;;;;5076518;28;20020;-85
2024/03/26 09:07:04;;;;;;;0.10;0.10;;;11.70;74.80;;;;;;5075946;28;20032;-85
2024/03/26 09:09:30;;;;;;;0.10;0.10;;;11.70;74.80;;;;;;5076112;28;20020;-85
2024/03/26 09:11:55;;;;;;;0.10;0.10;;;11.80;74.50;;;;;;5076611;28;20513;-86
2024/03/26 09:14:21;;;;;;;0.10;0.10;;;11.90;74.20;;;;;;5075873;28;20039;-85
2024/03/26 09:16:47;;;;;;;0.10;0.10;;;11.80;74.30;;;;;;5076100;28;20027;-85
2024/03/26 09:19:12;;;;;;;0.10;0.10;;;11.80;74.20;;;;;;5075811;28;20033;-85
2024/03/26 09:21:38;;;;;;;0.10;0.10;;;11.90;74.20;;;;;;5058198;28;20024;-85
2024/03/26 09:24:04;;;;;;;0.10;0.10;;;11.90;73.90;;;;;;5075960;28;20033;-84
2024/03/26 09:26:30;;;;;;;0.10;0.10;;;11.90;73.60;;;;;;5057611;28;20403;-85
2024/03/26 09:28:56;;;;;;;0.10;0.10;;;11.90;73.80;;;;;;5076356;28;20080;-86
2024/03/26 09:31:22;;;;;;;0.10;0.10;;;12.00;73.50;;;;;;5057567;28;20048;-85
2024/03/26 09:33:47;;;;;;;0.10;0.10;;;12.00;73.40;;;;;;5057257;28;20044;-85
2024/03/26 09:36:13;;;;;;;0.10;0.10;;;12.00;73.80;;;;;;5058588;28;20025;-84
2024/03/26 09:38:38;;;;;;;0.10;0.10;;;12.00;74.00;;;;;;5071427;28;20036;-84
2024/03/26 09:41:04;;;;;;;0.10;0.10;;;11.90;74.20;;;;;;5076062;28;20028;-84
2024/03/26 09:43:31;;;;;;;0.10;0.10;;;12.00;73.60;;;;;;5076239;28;20087;-84
2024/03/26 09:45:58;;;;;;;0.10;0.10;;;12.00;73.80;;;;;;5054086;28;20047;-86
2024/03/26 09:48:27;;;;;;;0.10;0.10;;;12.00;74.10;;;;;;5056121;28;20021;-85
2024/03/26 09:50:55;;;;;;;0.10;0.10;;;12.00;74.10;;;;;;5037963;28;20087;-85
2024/03/26 09:53:22;;;;;;;0.10;0.10;;;12.00;74.00;;;;;;5055841;28;20029;-85
2024/03/26 09:55:49;;;;;;;0.10;0.10;;;12.10;74.10;;;;;;5070555;28;20034;-85
2024/03/26 09:58:15;;;;;;;0.10;0.10;;;12.10;74.10;;;;;;5075811;28;20502;-84
2024/03/26 10:00:47;;;;;;;0.10;0.10;;;12.10;74.20;;;;;;5076166;28;20067;-85
2024/03/26 10:03:16;;;;;;;0.10;0.10;;;12.20;73.90;;;;;;5075347;28;20033;-85
2024/03/26 10:05:42;;;;;;;0.10;0.10;;;12.10;73.60;;;;;;5057833;28;20029;-85
2024/03/26 10:08:07;;;;;;;0.10;0.10;;;12.00;73.60;;;;;;5075959;28;20107;-84
2024/03/26 10:10:33;;;;;;;0.10;0.10;;;12.00;73.90;;;;;;5075736;28;20020;-84
2024/03/26 10:12:59;;;;;;;0.10;0.10;;;12.00;74.20;;;;;;5075519;28;20404;-84
2024/03/26 10:15:26;;;;;;;0.10;0.10;;;12.00;74.70;;;;;;5075711;28;20048;-84
2024/03/26 10:17:52;;;;;;;0.10;0.10;;;12.00;75.00;;;;;;5057716;28;20024;-85
2024/03/26 10:20:18;;;;;;;0.10;0.10;;;12.00;74.90;;;;;;5075730;28;20021;-84
2024/03/26 10:22:43;;;;;;;0.10;0.10;;;12.00;74.90;;;;;;5075616;28;20037;-85
2024/03/26 10:25:10;;;;;;;0.10;0.10;;;12.00;75.20;;;;;;5075475;28;20024;-86
2024/03/26 10:27:37;;;;;;;0.10;0.10;;;12.10;75.20;;;;;;5057666;28;20031;-86
2024/03/26 10:30:08;;;;;;;0.10;0.10;;;12.20;75.40;;;;;;5076480;28;20103;-85
2024/03/26 10:32:35;;;;;;;0.10;0.10;;;12.20;75.30;;;;;;5054092;28;20051;-87
2024/03/26 10:35:03;;;;;;;0.10;0.10;;;12.20;75.20;;;;;;5079034;28;20104;-86
2024/03/26 10:37:31;;;;;;;0.10;0.10;;;12.20;75.40;;;;;;5078556;28;20067;-86
2024/03/26 10:40:07;;;;;;;0.10;0.10;;;12.00;76.20;;;;;;5079067;28;20027;-86
2024/03/26 10:42:43;;;;;;;0.10;0.10;;;12.10;76.50;;;;;;5079116;28;20464;-86
2024/03/26 10:45:09;;;;;;;0.10;0.10;;;12.00;77.60;;;;;;5078419;28;20104;-85
2024/03/26 10:47:37;;;;;;;0.10;0.10;;;12.10;77.20;;;;;;5078993;28;20056;-86
2024/03/26 10:50:02;;;;;;;0.13;0.13;;;12.00;77.40;;;;;;5078442;28;20100;-86
2024/03/26 10:52:29;;;;;;;0.10;0.10;;;12.10;76.90;;;;;;5079043;28;20059;-86
2024/03/26 10:54:58;;;;;;;0.10;0.10;;;12.10;77.30;;;;;;5078252;28;20092;-87
2024/03/26 10:57:23;;;;;;;0.10;0.10;;;12.20;77.40;;;;;;5061284;28;20116;-86
2024/03/26 10:59:49;;;;;;;0.10;0.10;;;12.20;76.40;;;;;;5079061;28;20044;-85
2024/03/26 11:02:17;;;;;;;0.10;0.10;;;12.30;76.40;;;;;;5060698;28;20495;-85
2024/03/26 11:04:43;;;;;;;0.10;0.10;;;12.30;76.00;;;;;;5060127;28;20518;-85
2024/03/26 11:07:09;;;;;;;0.10;0.10;;;12.30;74.20;;;;;;5060467;28;20071;-86
2024/03/26 11:09:35;;;;;;;0.10;0.10;;;12.30;73.10;;;;;;5042793;28;20029;-85
2024/03/26 11:12:00;;;;;;;0.10;0.10;;;12.30;72.00;;;;;;5077471;28;20036;-87
2024/03/26 11:14:39;;;;;;;0.10;0.10;;;12.20;72.20;;;;;;5061123;28;20032;-86
2024/03/26 11:17:11;;;;;;;0.10;0.10;;;12.20;71.90;;;;;;5077336;28;20406;-85
2024/03/26 11:19:39;;;;;;;0.10;0.10;;;12.20;73.20;;;;;;5078665;28;20025;-86
2024/03/26 11:22:05;;;;;;;0.10;0.10;;;12.10;73.40;;;;;;5077966;28;20033;-86
2024/03/26 11:24:36;;;;;;;0.10;0.10;;;12.10;73.10;;;;;;5078531;28;20035;-86
2024/03/26 11:27:03;;;;;;;0.10;0.10;;;12.20;72.70;;;;;;5059784;28;20029;-85
2024/03/26 11:32:51;;;;;;;0.13;0.13;;;12.30;74.40;;;;;;5067338;28;20044;-85
2024/03/26 11:35:22;;;;;;;0.10;0.10;;;12.40;73.60;;;;;;5046017;28;20021;-86
2024/03/26 11:37:49;;;;;;;0.10;0.10;;;12.50;73.50;;;;;;5078102;28;20040;-85
2024/03/26 11:40:16;;;;;;;0.10;0.10;;;12.50;73.60;;;;;;5053219;28;20052;-85
2024/03/26 11:42:44;;;;;;;0.10;0.10;;;12.50;73.20;;;;;;5073194;28;20106;-86
2024/03/26 11:45:10;;;;;;;0.10;0.10;;;12.50;72.80;;;;;;5059943;28;20123;-88
2024/03/26 11:47:35;;;;;;;0.10;0.10;;;12.30;71.90;;;;;;5078142;28;20052;-86
2024/03/26 11:50:01;;;;;;;0.10;0.10;;;12.30;72.20;;;;;;5077356;28;20129;-86
2024/03/26 11:52:27;;;;;;;0.10;0.10;;;12.20;72.50;;;;;;5076951;28;20036;-85
2024/03/26 11:54:54;;;;;;;0.10;0.10;;;12.20;73.40;;;;;;5077055;28;20021;-85
2024/03/26 11:57:20;;;;;;;0.10;0.10;;;12.20;73.00;;;;;;5077860;28;20565;-85
2024/03/26 11:59:45;;;;;;;0.10;0.10;;;12.20;72.30;;;;;;5077523;28;20025;-85
2024/03/26 12:02:11;;;;;;;0.10;0.10;;;12.10;73.10;;;;;;5077575;28;20035;-85
2024/03/26 12:04:37;;;;;;;0.10;0.10;;;12.10;73.90;;;;;;5059363;28;20016;-85
2024/03/26 12:07:05;;;;;;;0.10;0.10;;;12.20;73.80;;;;;;5077413;28;20047;-85
2024/03/26 12:09:33;;;;;;;0.10;0.10;;;12.20;73.80;;;;;;5077482;28;20582;-85
2024/03/26 12:12:02;;;;;;;0.10;0.10;;;12.30;73.50;;;;;;5058992;28;20070;-85
2024/03/26 12:14:28;;;;;;;0.10;0.10;;;12.40;73.40;;;;;;5077520;28;20029;-85
2024/03/26 12:16:54;;;;;;;0.10;0.10;;;12.50;73.20;;;;;;5077247;28;20024;-85
2024/03/26 12:19:20;;;;;;;0.10;0.10;;;12.50;72.50;;;;;;5077426;28;20036;-85
2024/03/26 12:21:48;;;;;;;0.10;0.10;;;12.40;71.80;;;;;;5058959;28;20028;-85
2024/03/26 12:24:14;;;;;;;0.10;0.10;;;12.50;71.70;;;;;;5076487;28;20056;-86
2024/03/26 12:26:43;;;;;;;0.10;0.10;;;12.30;71.20;;;;;;5077135;28;20032;-86
2024/03/26 12:29:10;;;;;;;0.10;0.10;;;12.40;72.10;;;;;;5059323;28;20471;-85
2024/03/26 12:31:39;;;;;;;0.10;0.10;;;12.50;71.10;;;;;;5076264;28;20045;-86
2024/03/26 12:34:11;;;;;;;0.10;0.10;;;12.60;70.60;;;;;;5057983;28;20476;-84
2024/03/26 12:36:37;;;;;;;0.10;0.10;;;12.70;70.70;;;;;;5076718;28;20063;-86
2024/03/26 12:39:08;;;;;;;0.10;0.10;;;12.60;70.60;;;;;;5074687;28;20033;-87
2024/03/26 12:41:34;;;;;;;0.20;0.20;;;12.60;70.20;;;;;;5057882;28;20040;-85
2024/03/26 12:44:00;;;;;;;0.10;0.10;;;12.60;69.20;;;;;;5039292;28;20029;-87
2024/03/26 12:46:28;;;;;;;0.10;0.10;;;12.70;68.70;;;;;;5055789;28;20154;-86
2024/03/26 12:48:54;;;;;;;0.10;0.10;;;12.60;68.60;;;;;;5045120;28;20518;-86
2024/03/26 12:51:21;;;;;;;0.10;0.10;;;12.70;70.00;;;;;;5056322;28;20025;-85
2024/03/26 12:53:48;;;;;;;0.10;0.10;;;12.80;69.40;;;;;;5056141;28;20071;-86
2024/03/26 12:56:14;;;;;;;0.10;0.10;;;12.80;70.00;;;;;;5041236;28;20056;-86
2024/03/26 12:58:40;;;;;;;0.10;0.10;;;12.70;70.40;;;;;;5056523;28;20032;-85
2024/03/26 13:01:06;;;;;;;0.10;0.10;;;12.70;69.00;;;;;;5069252;28;20474;-84
2024/03/26 13:03:32;;;;;;;0.10;0.10;;;12.60;69.50;;;;;;5076409;28;20025;-85
2024/03/26 13:05:58;;;;;;;0.10;0.10;;;12.60;70.60;;;;;;5075890;28;20372;-86
2024/03/26 13:08:24;;;;;;;0.10;0.10;;;12.60;69.70;;;;;;5054923;28;20028;-85
2024/03/26 13:10:51;;;;;;;0.10;0.10;;;12.60;69.80;;;;;;5038854;28;20426;-86
2024/03/26 13:13:16;;;;;;;0.10;0.10;;;12.70;70.20;;;;;;5038090;28;20075;-86
2024/03/26 13:15:46;;;;;;;0.10;0.10;;;12.60;69.10;;;;;;5067592;28;20032;-86
2024/03/26 13:18:12;;;;;;;0.10;0.10;;;12.70;69.30;;;;;;5058453;28;20035;-85
2024/03/26 13:20:40;;;;;;;0.10;0.10;;;12.60;69.30;;;;;;5058384;28;20032;-86
2024/03/26 13:23:09;;;;;;;0.10;0.10;;;12.60;68.70;;;;;;5057981;28;20124;-86
2024/03/26 13:25:36;;;;;;;0.10;0.10;;;12.60;68.70;;;;;;5058024;28;20036;-86
2024/03/26 13:28:02;;;;;;;0.10;0.10;;;12.60;68.80;;;;;;5051899;28;20032;-85
2024/03/26 13:30:31;;;;;;;0.10;0.10;;;12.60;67.90;;;;;;5038344;28;20112;-86
2024/03/26 13:32:57;;;;;;;0.10;0.10;;;12.70;68.30;;;;;;5053986;28;20056;-86
2024/03/26 13:35:25;;;;;;;0.10;0.10;;;12.70;67.70;;;;;;5075547;28;20032;-85
2024/03/26 13:37:51;;;;;;;0.10;0.10;;;12.80;68.50;;;;;;5044824;28;20545;-87
2024/03/26 13:40:17;;;;;;;0.10;0.10;;;12.70;68.40;;;;;;5073500;28;20078;-86
2024/03/26 13:42:45;;;;;;;0.10;0.10;;;12.80;68.30;;;;;;5075558;28;20453;-85
2024/03/26 13:45:11;;;;;;;0.10;0.10;;;12.80;67.80;;;;;;5058224;28;20025;-86
2024/03/26 13:47:36;;;;;;;0.10;0.10;;;12.90;67.30;;;;;;5076212;28;20020;-87
2024/03/26 13:50:02;;;;;;;0.10;0.10;;;12.80;67.40;;;;;;5075867;28;20024;-85
2024/03/26 13:52:28;;;;;;;0.10;0.10;;;12.90;67.90;;;;;;5075967;28;20094;-86
2024/03/26 13:54:53;;;;;;;0.10;0.10;;;12.90;67.90;;;;;;5058000;28;20025;-87
2024/03/26 13:57:19;;;;;;;0.10;0.10;;;12.90;67.80;;;;;;5058175;28;20032;-86
2024/03/26 13:59:45;;;;;;;0.10;0.10;;;12.80;68.30;;;;;;5075427;28;20031;-87
2024/03/26 14:02:12;;;;;;;0.10;0.10;;;12.70;68.80;;;;;;5075886;28;20021;-85
2024/03/26 14:04:37;;;;;;;0.10;0.10;;;12.60;68.40;;;;;;5077456;28;20028;-85
2024/03/26 14:07:03;;;;;;;0.08;0.08;;;12.50;68.90;;;;;;5079399;28;20034;-85
2024/03/26 14:09:29;;;;;;;0.10;0.10;;;12.50;68.90;;;;;;5079676;28;20023;-85
2024/03/26 14:11:56;;;;;;;0.10;0.10;;;12.30;68.40;;;;;;5079092;28;20056;-85
2024/03/26 14:14:22;;;;;;;0.10;0.10;;;12.30;68.60;;;;;;5079668;28;20027;-85
2024/03/26 14:16:48;;;;;;;0.10;0.10;;;12.10;69.90;;;;;;5061857;28;20020;-84
2024/03/26 14:19:13;;;;;;;0.10;0.10;;;12.00;70.00;;;;;;5061498;28;20028;-86
2024/03/26 14:21:39;;;;;;;0.10;0.10;;;12.00;69.80;;;;;;5079106;28;20032;-86
2024/03/26 14:24:05;;;;;;;0.10;0.10;;;12.00;70.60;;;;;;5079418;28;20045;-85
2024/03/26 14:26:31;;;;;;;0.10;0.10;;;12.10;70.40;;;;;;5061251;28;20039;-85
2024/03/26 14:28:56;;;;;;;0.10;0.10;;;12.30;70.40;;;;;;5079295;28;20025;-85
2024/03/26 14:31:23;;;;;;;0.10;0.10;;;12.30;70.00;;;;;;5061197;28;20091;-86
2024/03/26 14:33:52;;;;;;;0.10;0.10;;;12.50;69.50;;;;;;5061079;28;20032;-87
2024/03/26 14:36:17;;;;;;;0.10;0.10;;;12.50;69.50;;;;;;5079036;28;20029;-85
2024/03/26 14:38:43;;;;;;;0.10;0.10;;;12.40;69.50;;;;;;5079009;28;20080;-86
2024/03/26 14:41:08;;;;;;;0.10;0.10;;;12.50;69.50;;;;;;5057985;28;20027;-86
2024/03/26 14:43:34;;;;;;;0.10;0.10;;;12.40;69.40;;;;;;5059359;28;20048;-86
2024/03/26 14:46:02;;;;;;;0.10;0.10;;;12.50;69.60;;;;;;5061417;28;20058;-86
2024/03/26 14:48:28;;;;;;;0.10;0.10;;;12.50;69.00;;;;;;5058893;28;20036;-87
2024/03/26 14:50:54;;;;;;;0.10;0.10;;;12.50;69.20;;;;;;5079091;28;20024;-85
2024/03/26 14:53:21;;;;;;;0.10;0.10;;;12.50;69.40;;;;;;5060987;28;20028;-86
2024/03/26 14:55:46;;;;;;;0.10;0.10;;;12.40;68.90;;;;;;5078611;28;20028;-86
2024/03/26 14:58:12;;;;;;;0.10;0.10;;;12.40;69.80;;;;;;5078876;28;20032;-87
2024/03/26 15:00:38;;;;;;;0.10;0.10;;;12.50;69.70;;;;;;5078785;28;20029;-86
2024/03/26 15:03:03;;;;;;;0.10;0.10;;;12.60;68.80;;;;;;5078966;28;20115;-86
2024/03/26 15:05:29;;;;;;;0.10;0.10;;;12.50;68.40;;;;;;5060406;28;20468;-87
2024/03/26 15:07:55;;;;;;;0.10;0.10;;;12.30;68.40;;;;;;5060380;28;20032;-85
2024/03/26 15:10:21;;;;;;;0.10;0.10;;;12.30;69.30;;;;;;5057176;28;20100;-86
2024/03/26 15:12:47;;;;;;;0.10;0.10;;;12.20;68.90;;;;;;5058718;28;20025;-87
2024/03/26 15:15:13;;;;;;;0.10;0.10;;;12.20;68.90;;;;;;5057040;28;20046;-86
2024/03/26 15:17:38;;;;;;;0.10;0.10;;;12.20;69.30;;;;;;5077106;28;20460;-87
2024/03/26 15:20:04;;;;;;;0.10;0.10;;;12.20;69.50;;;;;;5078229;28;20025;-84
2024/03/26 15:22:32;;;;;;;0.10;0.10;;;12.30;69.80;;;;;;5078348;28;20479;-85
2024/03/26 15:24:58;;;;;;;0.10;0.10;;;12.40;70.30;;;;;;5060345;28;20070;-86
2024/03/26 15:32:33;;;;;;;0.10;0.10;;;12.30;69.60;;;;;;5077280;28;20047;-85
2024/03/26 15:34:59;;;;;;;0.10;0.10;;;12.30;70.30;;;;;;5078291;28;20020;-85
2024/03/26 15:37:25;;;;;;;0.10;0.10;;;12.30;70.20;;;;;;5060083;28;20403;-85
2024/03/26 15:39:50;;;;;;;0.10;0.10;;;12.30;70.40;;;;;;5059550;28;20020;-87
2024/03/26 15:42:16;;;;;;;0.10;0.10;;;12.30;69.80;;;;;;5060744;28;20125;-87
2024/03/26 15:44:42;;;;;;;0.10;0.10;;;12.20;70.10;;;;;;5059036;28;20032;-86
2024/03/26 15:47:08;;;;;;;0.10;0.10;;;12.10;71.10;;;;;;5059708;28;20036;-86
2024/03/26 15:49:34;;;;;;;0.10;0.10;;;12.00;71.20;;;;;;5078134;28;20082;-86
2024/03/26 15:52:01;;;;;;;0.10;0.10;;;11.90;70.80;;;;;;5059496;28;20102;-86
2024/03/26 15:54:27;;;;;;;0.10;0.10;;;11.80;71.80;;;;;;5077811;28;20032;-85
2024/03/26 15:56:53;;;;;;;0.00;0.00;;;11.80;72.10;;;;;;5077849;28;20051;-85
2024/03/26 15:59:19;;;;;;;0.10;0.10;;;11.70;72.90;;;;;;5077630;28;20021;-84
2024/03/26 16:01:45;;;;;;;0.10;0.10;;;11.60;73.20;;;;;;5077297;28;20376;-85
2024/03/26 16:04:11;;;;;;;0.10;0.10;;;11.50;73.20;;;;;;5077814;28;20124;-85
2024/03/26 16:06:37;;;;;;;0.05;0.05;;;11.50;73.40;;;;;;5077146;28;20074;-85
2024/03/26 16:09:03;;;;;;;0.05;0.05;;;11.50;73.20;;;;;;5059120;28;20040;-86
2024/03/26 16:11:30;;;;;;;0.10;0.10;;;11.40;74.00;;;;;;5077569;28;20028;-85
2024/03/26 16:13:56;;;;;;;0.10;0.10;;;11.30;74.80;;;;;;5059322;28;20024;-85
2024/03/26 16:16:21;;;;;;;0.10;0.10;;;11.20;76.00;;;;;;5061346;28;20029;-86
2024/03/26 16:18:47;;;;;;;0.10;0.10;;;11.20;76.10;;;;;;5057292;28;20060;-85
2024/03/26 16:21:13;;;;;;;0.10;0.10;;;11.10;77.00;;;;;;5057199;28;20075;-85
2024/03/26 16:23:39;;;;;;;0.10;0.10;;;11.10;77.50;;;;;;5057397;28;20112;-85
2024/03/26 16:26:05;;;;;;;0.10;0.10;;;11.10;78.10;;;;;;5074695;28;20039;-85
2024/03/26 16:28:31;;;;;;;0.10;0.10;;;11.10;78.10;;;;;;5058437;28;20948;-85
2024/03/26 16:30:56;;;;;;;0.10;0.10;;;11.10;78.00;;;;;;5076972;28;20518;-85
2024/03/26 16:33:22;;;;;;;0.10;0.10;;;11.20;78.40;;;;;;5071247;28;20032;-85
2024/03/26 16:35:47;;;;;;;0.10;0.10;;;11.20;78.50;;;;;;5076978;28;20029;-85
2024/03/26 16:38:14;;;;;;;0.10;0.10;;;11.20;77.90;;;;;;5076994;28;20044;-85
2024/03/26 16:40:40;;;;;;;0.10;0.10;;;11.20;77.50;;;;;;5075734;28;20099;-81
2024/03/26 16:43:06;;;;;;;0.10;0.10;;;11.20;77.50;;;;;;5071661;28;20055;-84
2024/03/26 16:45:32;;;;;;;0.10;0.10;;;11.20;77.70;;;;;;5067733;28;20037;-84
2024/03/26 16:47:57;;;;;;;0.10;0.10;;;11.20;77.70;;;;;;5053875;28;20039;-84
2024/03/26 16:50:23;;;;;;;0.10;0.10;;;11.20;77.80;;;;;;5070159;28;20033;-89
2024/03/26 16:52:50;;;;;;;0.10;0.10;;;11.10;77.80;;;;;;5049699;28;20032;-86
2024/03/26 16:55:16;;;;;;;0.10;0.10;;;11.10;78.20;;;;;;5053995;28;20085;-85
2024/03/26 16:57:42;;;;;;;0.10;0.10;;;11.00;78.30;;;;;;5069561;28;20508;-80
2024/03/26 17:00:08;;;;;;;0.10;0.10;;;11.00;78.10;;;;;;5052419;28;20021;-77
2024/03/26 17:02:46;;;;;;;0.10;0.10;;;11.00;78.10;;;;;;5049676;28;20070;-84
2024/03/26 17:05:18;;;;;;;0.10;0.10;;;11.00;78.30;;;;;;5065466;28;20481;-88
2024/03/26 17:07:49;;;;;;;0.10;0.10;;;11.00;78.50;;;;;;5069684;28;20115;-86
2024/03/26 17:11:13;;;;;;;0.10;0.10;;;10.90;78.40;;;;;;5069971;28;20078;-85
2024/03/26 17:13:42;;;;;;;0.10;0.10;;;11.00;78.50;;;;;;5057281;28;20479;-85
2024/03/26 17:16:27;;;;;;;0.10;0.10;;;10.90;78.60;;;;;;5047792;28;20101;-84
2024/03/26 17:19:21;;;;;;;0.10;0.10;;;10.90;78.70;;;;;;5053132;28;20033;-84
2024/03/26 17:25:13;;;;;;;;;;;;;;;;;;;;;
2024/03/26 17:27:46;;;;;;;0.10;0.10;;;10.80;78.80;;;;;;5062671;28;19912;-87
2024/03/26 17:31:09;;;;;;;0.10;0.10;;;10.80;79.00;;;;;;5049156;28;20028;-83
2024/03/26 17:37:35;;;;;;;0.10;0.10;;;10.80;79.40;;;;;;5007596;28;20117;-85
2024/03/26 17:44:01;;;;;;;0.10;0.10;;;10.70;79.80;;;;;;5068030;28;20032;-85
2024/03/26 17:46:56;;;;;;;;;;;;;;;;;;;;;
2024/03/26 17:49:29;;;;;;;0.10;0.10;;;10.60;80.00;;;;;;5070597;28;21532;-86
2024/03/26 17:52:22;;;;;;;0.10;0.10;;;10.60;80.10;;;;;;5066744;28;20024;-86
2024/03/26 17:55:15;;;;;;;0.10;0.10;;;10.70;80.00;;;;;;5049490;28;20051;-86
2024/03/26 17:58:45;;;;;;;0.10;0.10;;;10.60;79.50;;;;;;5049550;28;20027;-86
2024/03/26 18:01:46;;;;;;;0.10;0.10;;;10.70;79.60;;;;;;5072742;28;20499;-86
2024/03/26 18:04:12;;;;;;;0.10;0.10;;;10.60;79.70;;;;;;5069331;28;20063;-87
2024/03/26 18:06:40;;;;;;;0.10;0.10;;;10.70;79.80;;;;;;5061567;28;20036;-82
2024/03/26 18:09:05;;;;;;;0.05;0.05;;;10.70;79.70;;;;;;5077264;28;20764;-82
2024/03/26 18:11:31;;;;;;;0.10;0.10;;;10.80;80.00;;;;;;5075239;28;20421;-81
2024/03/26 18:14:00;;;;;;;0.10;0.10;;;10.70;79.80;;;;;;5067397;28;20031;-82
2024/03/26 18:16:26;;;;;;;0.10;0.10;;;10.70;79.50;;;;;;5073179;28;20037;-82
2024/03/26 18:18:52;;;;;;;0.10;0.10;;;10.70;77.90;;;;;;5070281;28;20029;-82
2024/03/26 18:21:29;;;;;;;0.10;0.10;;;10.60;77.40;;;;;;5056990;28;20906;-81
2024/03/26 18:24:45;;;;;;;0.10;0.10;;;10.60;77.50;;;;;;5058004;28;20025;-86
2024/03/26 18:27:40;;;;;;;;;;;;;;;;;;;;;
2024/03/26 18:30:07;;;;;;;0.10;0.10;;;10.50;76.60;;;;;;5077269;28;20088;-77
2024/03/26 18:39:29;;;;;;;0.10;0.10;;;10.20;76.20;;;;;;4943080;28;20595;-76
2024/03/26 18:42:02;;;;;;;0.10;0.10;;;10.20;76.70;;;;;;5062937;28;20106;-79
2024/03/26 18:44:28;;;;;;;0.10;0.10;;;10.00;77.10;;;;;;5077155;28;20534;-82
2024/03/26 18:46:53;;;;;;;0.10;0.10;;;9.90;77.50;;;;;;5072734;28;20071;-80
2024/03/26 18:49:38;;;;;;;0.10;0.10;;;9.80;77.70;;;;;;5058019;28;20052;-84
2024/03/26 18:52:07;;;;;;;0.10;0.10;;;9.80;77.30;;;;;;5041095;28;20065;-80